Severn, MD (21144)

11:48 AM EDT on June 29, 2017 (GMT -0400)
Ridge Forest Glen | | Change Station

Elev 213 ft 39.15 °N, 76.72 °W | Updated 31 seconds ago

Mostly Cloudy
Mostly Cloudy
82.8 °F
Feels Like 84 °F
N
4.0
Wind Variable Wind from SW

Today
High -- | Low -- °F
--% Chance of Precip.
Yesterday
High -- | Low -- °F
Precip. -- in
Pressure 30.13 in
Visibility 10.0 miles
Clouds Few 8000 ft
Scattered Clouds 18000 ft
Overcast 25000 ft
Heat Index 84 °F
Dew Point 62 °F
Humidity 50%
Rainfall 0.00 in
Snow Depth Not available.
5:43 AM 8:36 PM
Waxing Crescent, 36% visible
METAR KBWI 291454Z 23011G21KT 10SM FEW080 SCT180 OVC250 27/14 A3014 RMK AO2 SLP203 T02670144 56005
Pressure 30.13 in
Visibility 10.0 miles
Clouds Few 8000 ft
Scattered Clouds 18000 ft
Overcast 25000 ft
Heat Index 84 °F
Dew Point 62 °F
Humidity 50%
Rainfall 0.00 in
Snow Depth Not available.
5:43 AM 8:36 PM
Waxing Crescent, 36% visible
METAR KBWI 291454Z 23011G21KT 10SM FEW080 SCT180 OVC250 27/14 A3014 RMK AO2 SLP203 T02670144 56005

Get Severe Weather Alerts

Thanks for signing up!

Be on the lookout for a verification email in your inbox.

You'll start receiving the daily forecast at 6 AM.

×

10-Day Weather Forecast

Almanac

Astronomy

Jun. 29, 2017 Rise Set
Actual Time
Civil Twilight
Nautical Twilight
Astronomical Twilight
Moon
Length of Visible Light
Length of Day
Tomorrow will be .
, % of the Moon is Illuminated

Today's Extremes

State Highs State Lows

Community

WunderPhotos

Category 6

Welcome to Category 6. This is the collective home for Weather Underground's featured writeups by Dr. Jeff Masters (right), Bob Henson (left), Chris Burt, and other regular contributors.

Nearby

Air Quality

  Air Quality AQ Index Pollutant
Not available.

Snow Depth

Station Depth Elevation

Earthquake Activity

City Distance Mag. Time & Date
Minimum magnitude displayed is 2.5.

Coastal Water Temperatures

Place Temperature

Stations

Nearby Weather Stations

Station Location Temp. Windchill Dew Point Humidity Wind Precip. Elev Updated Type
                   

Watches & Warnings

There are currently no watches in effect.